createdAt,value
2022-08-05T00:01:36.050Z,4.03
2022-08-05T00:04:16.494Z,4.07
2022-08-05T00:06:44.844Z,4.03
2022-08-05T00:09:19.523Z,3.97
2022-08-05T00:11:49.597Z,4.30
2022-08-05T00:14:27.871Z,4.00
2022-08-05T00:16:57.398Z,3.80
2022-08-05T00:19:33.761Z,4.57
2022-08-05T00:22:11.252Z,4.47
2022-08-05T00:24:42.327Z,3.80
2022-08-05T00:27:16.538Z,4.57
2022-08-05T00:29:45.157Z,4.37
2022-08-05T00:32:15.139Z,4.00
2022-08-05T00:35:03.424Z,4.67
2022-08-05T00:37:35.747Z,4.10
2022-08-05T00:40:27.977Z,4.27
2022-08-05T00:42:57.942Z,3.97
2022-08-05T00:45:37.918Z,4.87
2022-08-05T00:48:07.873Z,4.47
2022-08-05T00:50:36.284Z,4.37
2022-08-05T00:53:09.903Z,4.43
2022-08-05T00:55:54.385Z,4.07
2022-08-05T00:58:27.679Z,4.37
2022-08-05T01:00:56.226Z,3.93
2022-08-05T01:03:31.069Z,4.33
2022-08-05T01:06:02.656Z,4.40
2022-08-05T01:08:43.378Z,4.37
2022-08-05T01:11:22.237Z,4.40
2022-08-05T01:13:59.606Z,4.70
2022-08-05T01:16:32.225Z,5.07
2022-08-05T01:19:02.481Z,5.20
2022-08-05T01:21:50.682Z,5.27
2022-08-05T01:24:30.243Z,5.50
2022-08-05T01:27:17.831Z,5.70
2022-08-05T01:29:51.661Z,5.67
2022-08-05T01:32:22.220Z,6.53
2022-08-05T01:34:52.542Z,6.77
2022-08-05T01:37:25.533Z,6.20
2022-08-05T01:39:59.191Z,6.67
2022-08-05T01:42:28.272Z,7.50
2022-08-05T01:44:59.152Z,9.17
2022-08-05T01:47:39.700Z,10.30
2022-08-05T01:50:15.465Z,11.43
2022-08-05T01:52:49.865Z,11.13
2022-08-05T01:55:19.413Z,11.67
2022-08-05T01:58:29.620Z,12.30
2022-08-05T02:00:39.675Z,12.93
2022-08-05T02:03:24.020Z,11.37
2022-08-05T02:05:59.860Z,11.73
2022-08-05T02:08:31.237Z,9.83
2022-08-05T02:11:01.600Z,10.13
2022-08-05T02:13:36.433Z,10.07
2022-08-05T02:16:22.513Z,11.10
2022-08-05T02:18:52.108Z,8.50
2022-08-05T02:21:23.575Z,8.23
2022-08-05T02:23:56.713Z,7.67
2022-08-05T02:26:26.542Z,7.57
2022-08-05T02:28:56.508Z,7.40
2022-08-05T02:31:34.591Z,7.60
2022-08-05T02:34:05.864Z,7.40
2022-08-05T02:36:38.201Z,7.33
2022-08-05T02:39:08.804Z,7.77
2022-08-05T02:41:43.140Z,7.57
2022-08-05T02:44:27.436Z,7.57
2022-08-05T02:47:00.122Z,8.50
2022-08-05T02:49:36.179Z,8.17
2022-08-05T02:52:09.152Z,8.67
2022-08-05T02:54:41.253Z,7.97
2022-08-05T02:58:10.664Z,7.30
2022-08-05T03:00:00.414Z,8.33
2022-08-05T03:02:33.764Z,8.10
2022-08-05T03:05:02.553Z,9.30
2022-08-05T03:07:59.198Z,9.90
2022-08-05T03:10:24.433Z,8.47
2022-08-05T03:12:54.005Z,9.90
2022-08-05T03:15:23.804Z,10.30
2022-08-05T03:17:55.463Z,9.53
2022-08-05T03:20:24.336Z,9.53
2022-08-05T03:22:53.079Z,9.30
2022-08-05T03:25:33.617Z,8.40
2022-08-05T03:28:14.226Z,9.50
2022-08-05T03:30:42.674Z,9.70
2022-08-05T03:33:12.492Z,9.73
2022-08-05T03:35:41.836Z,9.27
2022-08-05T03:38:12.268Z,10.20
2022-08-05T03:40:45.254Z,8.97
2022-08-05T03:44:08.074Z,10.17
2022-08-05T03:46:04.585Z,10.87
2022-08-05T03:48:35.366Z,10.33
2022-08-05T03:52:34.705Z,11.03
2022-08-05T03:55:49.774Z,10.10
2022-08-05T03:56:46.440Z,10.53
2022-08-05T03:59:16.619Z,11.50
2022-08-05T04:01:52.285Z,11.13
2022-08-05T04:04:22.406Z,12.07
2022-08-05T04:06:55.144Z,12.13
2022-08-05T04:09:25.912Z,12.27
2022-08-05T04:11:56.657Z,13.23
2022-08-05T04:14:30.392Z,13.17
2022-08-05T04:16:59.605Z,14.07
2022-08-05T04:19:29.506Z,14.90
2022-08-05T04:22:08.281Z,16.63
2022-08-05T04:24:44.173Z,16.37
2022-08-05T04:27:12.943Z,16.37
2022-08-05T04:29:41.773Z,18.00
2022-08-05T04:32:10.826Z,18.13
2022-08-05T04:34:43.258Z,18.73
2022-08-05T04:37:12.800Z,16.70
2022-08-05T04:39:41.216Z,19.17
2022-08-05T04:42:10.105Z,18.73
2022-08-05T04:44:39.271Z,19.93
2022-08-05T04:47:09.913Z,19.70
2022-08-05T04:50:01.343Z,19.57
2022-08-05T04:52:29.009Z,18.37
2022-08-05T04:54:57.976Z,19.83
2022-08-05T04:57:37.224Z,20.73
2022-08-05T05:00:06.213Z,20.57
2022-08-05T05:02:41.864Z,21.07
2022-08-05T05:05:17.054Z,21.33
2022-08-05T05:08:01.689Z,23.10
2022-08-05T05:10:30.410Z,22.57
2022-08-05T05:12:58.761Z,23.27
2022-08-05T05:15:56.494Z,24.40
2022-08-05T05:18:27.992Z,23.10
2022-08-05T05:21:03.946Z,24.20
2022-08-05T05:23:39.007Z,24.33
2022-08-05T05:26:28.335Z,25.40
2022-08-05T05:29:02.128Z,25.90
2022-08-05T05:34:02.617Z,26.23
2022-08-05T05:36:32.698Z,24.67
2022-08-05T05:39:05.630Z,25.53
2022-08-05T05:41:40.849Z,26.77
2022-08-05T05:44:27.008Z,25.27
2022-08-05T05:47:03.996Z,27.40
2022-08-05T05:49:33.253Z,28.30
2022-08-05T05:52:06.061Z,28.23
2022-08-05T05:54:50.300Z,29.47
2022-08-05T05:57:19.766Z,28.60
2022-08-05T05:59:49.064Z,27.20
2022-08-05T06:02:32.632Z,27.50
2022-08-05T06:05:10.575Z,29.60
2022-08-05T06:07:57.506Z,29.30
2022-08-05T06:10:36.780Z,29.13
2022-08-05T06:13:06.328Z,27.57
2022-08-05T06:16:28.193Z,30.37
2022-08-05T06:18:31.159Z,28.87
2022-08-05T06:21:00.336Z,29.07
2022-08-05T06:23:43.532Z,27.57
2022-08-05T06:26:21.691Z,29.60
2022-08-05T06:28:53.239Z,30.03
2022-08-05T06:31:21.934Z,29.03
2022-08-05T06:34:06.985Z,27.27
2022-08-05T06:36:57.348Z,27.67
2022-08-05T06:39:27.231Z,26.07
2022-08-05T06:41:57.314Z,25.37
2022-08-05T06:44:25.985Z,27.97
2022-08-05T06:46:54.558Z,28.33
2022-08-05T06:50:01.543Z,24.23
2022-08-05T06:52:37.135Z,22.17
2022-08-05T06:55:00.648Z,21.80
2022-08-05T06:58:02.901Z,20.30
2022-08-05T07:00:22.453Z,21.03
2022-08-05T07:02:54.336Z,20.57
2022-08-05T07:05:37.056Z,19.23
2022-08-05T07:08:06.463Z,19.80
2022-08-05T07:10:52.442Z,20.20
2022-08-05T07:13:57.596Z,18.93
2022-08-05T07:18:08.750Z,19.10
2022-08-05T07:22:27.626Z,18.63
2022-08-05T07:24:57.594Z,18.10
2022-08-05T07:27:27.630Z,16.20
2022-08-05T07:30:27.961Z,15.30
2022-08-05T07:32:58.809Z,14.10
2022-08-05T07:36:03.389Z,12.43
2022-08-05T07:38:33.040Z,12.60
2022-08-05T07:42:07.173Z,12.17
2022-08-05T07:43:52.530Z,10.57
2022-08-05T07:46:25.272Z,10.50
2022-08-05T07:49:02.459Z,10.20
2022-08-05T07:51:37.308Z,8.63
2022-08-05T07:54:10.127Z,9.87
2022-08-05T07:57:01.414Z,9.30
2022-08-05T07:59:38.094Z,8.07
2022-08-05T08:02:15.899Z,7.60
2022-08-05T08:04:46.146Z,7.67
2022-08-05T08:07:15.252Z,7.13
2022-08-05T08:09:43.686Z,7.27
2022-08-05T08:12:35.286Z,7.67
2022-08-05T08:15:03.561Z,6.63
2022-08-05T08:17:33.000Z,6.63
2022-08-05T08:20:22.957Z,6.43
2022-08-05T08:22:55.604Z,6.07
2022-08-05T08:25:26.565Z,5.60
2022-08-05T08:28:04.279Z,5.07
2022-08-05T08:30:47.302Z,5.77
2022-08-05T08:33:16.632Z,5.30
2022-08-05T08:35:52.691Z,5.87
2022-08-05T08:38:35.512Z,6.33
2022-08-05T08:41:06.398Z,6.47
2022-08-05T08:45:19.668Z,5.60
2022-08-05T08:46:26.019Z,6.37
2022-08-05T08:49:06.368Z,7.33
2022-08-05T08:52:06.135Z,6.20
2022-08-05T08:54:36.284Z,5.83
2022-08-05T08:57:11.607Z,6.00
2022-08-05T08:59:47.093Z,6.43
2022-08-05T09:02:20.404Z,6.10
2022-08-05T09:05:16.102Z,5.90
2022-08-05T09:07:39.899Z,6.17
2022-08-05T09:10:27.883Z,6.00
2022-08-05T09:12:58.938Z,5.77
2022-08-05T09:15:36.917Z,5.87
2022-08-05T09:18:07.603Z,7.10
2022-08-05T09:20:38.053Z,8.10
2022-08-05T09:23:18.553Z,8.17
2022-08-05T09:26:02.980Z,7.47
2022-08-05T09:28:34.066Z,6.83
2022-08-05T09:31:22.151Z,7.40
2022-08-05T09:33:56.680Z,6.47
2022-08-05T09:36:27.711Z,6.30
2022-08-05T09:39:03.066Z,6.20
2022-08-05T09:41:32.899Z,5.53
2022-08-05T09:44:06.762Z,5.67
2022-08-05T09:46:35.814Z,5.90
2022-08-05T09:49:19.424Z,5.60
2022-08-05T09:51:49.731Z,5.63
2022-08-05T09:54:21.433Z,5.53
2022-08-05T09:57:01.474Z,5.60
2022-08-05T09:59:36.902Z,6.37
2022-08-05T10:02:05.937Z,6.10
2022-08-05T10:04:40.868Z,5.87
2022-08-05T10:07:20.332Z,7.23
2022-08-05T10:10:13.868Z,5.13
2022-08-05T10:12:49.827Z,5.20
2022-08-05T10:15:22.668Z,5.27
2022-08-05T10:18:10.771Z,5.00
2022-08-05T10:20:41.629Z,5.10
2022-08-05T10:23:34.091Z,5.20
2022-08-05T10:26:01.159Z,4.70
2022-08-05T10:28:30.502Z,4.73
2022-08-05T10:32:54.586Z,5.83
2022-08-05T10:33:52.308Z,4.97
2022-08-05T10:36:26.288Z,5.77
2022-08-05T10:38:58.332Z,5.23
2022-08-05T10:41:46.874Z,4.83
2022-08-05T10:44:18.999Z,5.40
2022-08-05T10:46:50.660Z,5.33
2022-08-05T10:49:26.930Z,4.50
2022-08-05T10:52:05.265Z,5.10
2022-08-05T10:54:56.786Z,4.60
2022-08-05T10:57:32.245Z,5.03
2022-08-05T11:00:18.683Z,5.20
2022-08-05T11:03:25.532Z,5.47
2022-08-05T11:06:14.610Z,5.00
2022-08-05T11:08:59.610Z,4.40
2022-08-05T11:11:44.821Z,4.90
2022-08-05T11:14:49.428Z,5.60
2022-08-05T11:17:59.689Z,4.47
2022-08-05T11:20:41.708Z,4.83
2022-08-05T11:23:49.871Z,5.23
2022-08-05T11:26:28.189Z,4.87
2022-08-05T11:29:13.435Z,4.70
2022-08-05T11:31:57.406Z,4.83
2022-08-05T11:34:39.333Z,4.53
2022-08-05T11:38:29.466Z,5.40
2022-08-05T11:40:02.832Z,4.80
2022-08-05T11:42:40.250Z,5.60
2022-08-05T11:45:22.955Z,5.80
2022-08-05T11:47:59.614Z,5.33
2022-08-05T11:50:29.252Z,4.70
2022-08-05T11:52:58.353Z,5.33
2022-08-05T11:55:32.055Z,5.70
2022-08-05T11:58:10.062Z,5.60
2022-08-05T12:00:44.159Z,6.73
2022-08-05T12:03:29.159Z,6.10
2022-08-05T12:06:00.808Z,6.33
2022-08-05T12:08:31.519Z,6.27
2022-08-05T12:11:05.454Z,6.10
2022-08-05T12:13:49.523Z,5.27
2022-08-05T12:16:26.934Z,5.43
2022-08-05T12:18:55.828Z,4.13
2022-08-05T12:21:26.849Z,3.83
2022-08-05T12:24:04.840Z,3.30
2022-08-05T12:26:34.039Z,4.40
2022-08-05T12:29:03.104Z,4.57
2022-08-05T12:31:46.305Z,4.77
2022-08-05T12:34:21.569Z,5.30
2022-08-05T12:36:52.509Z,5.17
2022-08-05T12:39:21.411Z,5.13
2022-08-05T12:41:49.707Z,4.53
2022-08-05T12:44:33.477Z,4.70
2022-08-05T12:47:03.950Z,4.03
2022-08-05T12:50:02.355Z,4.60
2022-08-05T12:52:42.343Z,3.20
2022-08-05T12:55:22.258Z,3.70
2022-08-05T12:58:48.494Z,4.73
2022-08-05T13:02:02.358Z,4.13
2022-08-05T13:03:33.547Z,3.10
2022-08-05T13:06:01.986Z,3.83
2022-08-05T13:08:32.307Z,4.20
2022-08-05T13:11:01.857Z,3.93
2022-08-05T13:14:05.297Z,3.57
2022-08-05T13:16:19.445Z,3.20
2022-08-05T13:18:55.235Z,3.50
2022-08-05T13:21:28.247Z,3.27
2022-08-05T13:24:08.789Z,3.13
2022-08-05T13:26:37.381Z,2.70
2022-08-05T13:29:05.763Z,3.03
2022-08-05T13:32:03.801Z,3.07
2022-08-05T13:34:26.179Z,3.20
2022-08-05T13:36:54.908Z,3.30
2022-08-05T13:40:12.932Z,3.87
2022-08-05T13:42:15.130Z,3.00
2022-08-05T13:44:45.758Z,2.50
2022-08-05T13:47:35.678Z,2.70
2022-08-05T13:50:09.561Z,3.30
2022-08-05T13:52:41.244Z,3.20
2022-08-05T13:55:09.990Z,3.10
2022-08-05T13:57:50.793Z,3.03
2022-08-05T14:00:26.756Z,3.17
2022-08-05T14:02:56.317Z,3.03
2022-08-05T14:05:47.980Z,3.83
2022-08-05T14:08:20.707Z,3.07
2022-08-05T14:10:59.720Z,3.70
2022-08-05T14:13:32.215Z,3.40
2022-08-05T14:16:05.017Z,2.80
2022-08-05T14:18:38.103Z,2.77
2022-08-05T14:22:09.688Z,2.87
2022-08-05T14:23:56.095Z,3.20
2022-08-05T14:26:35.535Z,2.90
2022-08-05T14:29:16.273Z,2.43
2022-08-05T14:32:02.979Z,2.17
2022-08-05T14:34:35.336Z,2.63
2022-08-05T14:37:05.628Z,2.07
2022-08-05T14:39:49.546Z,2.60
2022-08-05T14:42:29.489Z,2.23
2022-08-05T14:44:57.853Z,2.10
2022-08-05T14:48:03.417Z,2.13
2022-08-05T14:50:19.064Z,1.90
2022-08-05T14:52:57.567Z,1.90
2022-08-05T14:55:38.415Z,1.90
2022-08-05T14:58:11.002Z,1.70
2022-08-05T15:00:58.459Z,1.33
2022-08-05T15:03:27.311Z,2.50
2022-08-05T15:06:13.634Z,2.33
2022-08-05T15:09:01.310Z,2.90
2022-08-05T15:11:52.580Z,2.47
2022-08-05T15:14:35.680Z,2.97
2022-08-05T15:17:09.836Z,2.77
2022-08-05T15:19:57.237Z,2.90
2022-08-05T15:22:27.182Z,2.47
2022-08-05T15:24:59.021Z,2.07
2022-08-05T15:27:32.263Z,2.30
2022-08-05T15:30:04.596Z,1.70
2022-08-05T15:32:33.165Z,1.70
2022-08-05T15:35:09.830Z,1.60
2022-08-05T15:38:34.490Z,1.50
2022-08-05T15:41:01.993Z,1.70
2022-08-05T15:43:20.159Z,1.20
2022-08-05T15:45:59.760Z,1.30
2022-08-05T15:48:29.580Z,1.60
2022-08-05T15:50:58.186Z,1.40
2022-08-05T15:53:38.415Z,1.40
2022-08-05T15:56:21.399Z,1.60
2022-08-05T15:58:50.037Z,1.33
2022-08-05T16:01:19.069Z,1.43
2022-08-05T16:03:50.478Z,1.40
2022-08-05T16:06:19.890Z,1.10
2022-08-05T16:08:51.058Z,1.30
2022-08-05T16:11:43.020Z,1.30
2022-08-05T16:14:09.299Z,1.20
2022-08-05T16:16:37.693Z,1.30
2022-08-05T16:19:06.520Z,1.20
2022-08-05T16:21:58.525Z,1.40
2022-08-05T16:24:41.191Z,1.10
2022-08-05T16:27:16.419Z,1.00
2022-08-05T16:29:50.361Z,1.23
2022-08-05T16:32:28.328Z,1.10
2022-08-05T16:34:58.700Z,1.10
2022-08-05T16:38:02.323Z,1.20
2022-08-05T16:40:26.651Z,1.40
2022-08-05T16:42:58.633Z,1.47
2022-08-05T16:46:07.730Z,1.30
2022-08-05T16:48:25.766Z,1.20
2022-08-05T16:50:54.569Z,1.10
2022-08-05T16:53:32.512Z,1.10
2022-08-05T16:56:11.922Z,1.30
2022-08-05T16:58:42.099Z,1.10
2022-08-05T17:01:10.762Z,1.00
2022-08-05T17:03:39.123Z,1.20
2022-08-05T17:06:07.558Z,1.20
2022-08-05T17:08:52.676Z,1.23
2022-08-05T17:11:23.968Z,1.33
2022-08-05T17:14:05.167Z,1.27
2022-08-05T17:16:36.615Z,1.20
2022-08-05T17:19:07.836Z,1.20
2022-08-05T17:21:39.783Z,1.13
2022-08-05T17:24:28.197Z,0.97
2022-08-05T17:26:57.663Z,1.43
2022-08-05T17:29:39.804Z,1.17
2022-08-05T17:32:11.434Z,0.87
2022-08-05T17:34:44.742Z,0.93
2022-08-05T17:37:36.123Z,0.90
2022-08-05T17:40:04.871Z,1.00
2022-08-05T17:42:41.686Z,1.10
2022-08-05T17:45:21.195Z,1.10
2022-08-05T17:47:54.521Z,1.47
2022-08-05T17:50:28.204Z,1.40
2022-08-05T17:52:58.763Z,1.10
2022-08-05T17:55:34.527Z,1.20
2022-08-05T17:58:09.385Z,1.10
2022-08-05T18:00:44.667Z,0.87
2022-08-05T18:03:39.351Z,1.00
2022-08-05T18:06:11.346Z,1.20
2022-08-05T18:08:44.539Z,1.03
2022-08-05T18:11:24.579Z,2.60
2022-08-05T18:14:00.908Z,1.63
2022-08-05T18:16:33.361Z,2.50
2022-08-05T18:19:01.650Z,2.20
2022-08-05T18:22:06.960Z,2.30
2022-08-05T18:24:18.274Z,1.20
2022-08-05T18:26:49.211Z,1.23
2022-08-05T18:29:17.488Z,1.00
2022-08-05T18:32:13.071Z,1.23
2022-08-05T18:34:42.809Z,1.10
2022-08-05T18:37:12.587Z,1.03
2022-08-05T18:40:30.922Z,1.10
2022-08-05T18:42:29.976Z,1.30
2022-08-05T18:44:58.259Z,1.40
2022-08-05T18:47:31.117Z,1.07
2022-08-05T18:50:19.833Z,1.20
2022-08-05T18:53:16.766Z,1.20
2022-08-05T18:55:50.530Z,1.30
2022-08-05T18:58:27.359Z,1.30
2022-08-05T19:00:57.342Z,1.27
2022-08-05T19:03:55.454Z,0.97
2022-08-05T19:06:21.551Z,1.00
2022-08-05T19:08:50.514Z,0.97
2022-08-05T19:11:21.909Z,1.07
2022-08-05T19:14:01.232Z,1.00
2022-08-05T19:16:47.113Z,1.00
2022-08-05T19:19:20.934Z,1.07
2022-08-05T19:21:51.471Z,1.10
2022-08-05T19:24:34.497Z,1.03
2022-08-05T19:27:04.186Z,0.80
2022-08-05T19:29:36.511Z,1.07
2022-08-05T19:32:08.479Z,1.10
2022-08-05T19:34:38.882Z,1.30
2022-08-05T19:37:07.840Z,1.00
2022-08-05T19:39:45.714Z,1.00
2022-08-05T19:42:19.255Z,1.00
2022-08-05T19:45:05.681Z,1.20
2022-08-05T19:47:34.084Z,1.10
2022-08-05T19:50:03.860Z,1.33
2022-08-05T19:52:34.474Z,1.20
2022-08-05T19:55:07.081Z,0.90
2022-08-05T19:58:04.147Z,1.10
2022-08-05T20:00:41.536Z,1.20
2022-08-05T20:03:10.911Z,1.20
2022-08-05T20:05:50.352Z,1.30
2022-08-05T20:08:20.019Z,1.10
2022-08-05T20:10:49.668Z,1.10
2022-08-05T20:13:30.042Z,1.10
2022-08-05T20:16:09.957Z,1.10
2022-08-05T20:18:38.905Z,0.90
2022-08-05T20:21:08.959Z,1.00
2022-08-05T20:23:39.678Z,1.40
2022-08-05T20:26:19.349Z,1.33
2022-08-05T20:28:48.445Z,1.60
2022-08-05T20:31:17.109Z,1.37
2022-08-05T20:33:45.714Z,1.00
2022-08-05T20:36:19.160Z,1.10
2022-08-05T20:38:54.654Z,1.20
2022-08-05T20:41:43.174Z,1.20
2022-08-05T20:44:19.223Z,1.20
2022-08-05T20:46:57.912Z,1.23
2022-08-05T20:49:26.485Z,0.90
2022-08-05T20:51:57.246Z,1.10
2022-08-05T20:54:58.975Z,1.00
2022-08-05T20:57:24.768Z,1.20
2022-08-05T21:00:21.199Z,1.13
2022-08-05T21:02:56.047Z,1.40
2022-08-05T21:05:25.289Z,1.30
2022-08-05T21:08:02.905Z,1.20
2022-08-05T21:10:32.978Z,1.10
2022-08-05T21:13:11.109Z,1.10
2022-08-05T21:15:44.530Z,2.43
2022-08-05T21:18:19.660Z,1.20
2022-08-05T21:20:52.916Z,1.27
2022-08-05T21:23:22.563Z,1.33
2022-08-05T21:25:50.784Z,1.30
2022-08-05T21:28:23.980Z,1.40
2022-08-05T21:30:58.887Z,1.30
2022-08-05T21:33:36.822Z,1.10
2022-08-05T21:36:08.297Z,1.13
2022-08-05T21:38:40.487Z,1.00
2022-08-05T21:41:09.538Z,1.30
2022-08-05T21:43:41.663Z,1.50
2022-08-05T21:46:11.795Z,1.10
2022-08-05T21:48:40.656Z,1.20
2022-08-05T21:52:16.291Z,1.27
2022-08-05T21:53:59.509Z,1.10
2022-08-05T21:56:32.311Z,1.20
2022-08-05T21:59:07.713Z,2.03
2022-08-05T22:01:36.488Z,1.60
2022-08-05T22:04:05.160Z,1.43
2022-08-05T22:06:35.088Z,1.50
2022-08-05T22:09:13.818Z,1.40
2022-08-05T22:11:46.890Z,1.37
2022-08-05T22:14:33.579Z,1.43
2022-08-05T22:17:06.815Z,1.50
2022-08-05T22:20:01.592Z,1.40
2022-08-05T22:22:28.280Z,1.50
2022-08-05T22:25:27.724Z,1.30
2022-08-05T22:28:11.757Z,1.30
2022-08-05T22:30:55.359Z,1.40
2022-08-05T22:33:56.543Z,1.30
2022-08-05T22:36:14.648Z,1.40
2022-08-05T22:38:43.398Z,1.60
2022-08-05T22:42:05.727Z,1.77
2022-08-05T22:44:05.804Z,1.50
2022-08-05T22:46:34.076Z,1.30
2022-08-05T22:49:12.121Z,1.40
2022-08-05T22:52:04.643Z,1.63
2022-08-05T22:54:36.078Z,1.50
2022-08-05T22:57:05.924Z,1.30
2022-08-05T22:59:46.483Z,1.60
2022-08-05T23:02:18.424Z,1.73
2022-08-05T23:04:57.302Z,1.80
2022-08-05T23:07:25.528Z,2.10
2022-08-05T23:10:01.617Z,1.70
2022-08-05T23:12:32.576Z,1.80
2022-08-05T23:15:03.396Z,1.90
2022-08-05T23:17:34.492Z,1.77
2022-08-05T23:20:10.404Z,1.40
2022-08-05T23:22:47.197Z,1.67
2022-08-05T23:25:17.433Z,2.30
2022-08-05T23:28:07.539Z,1.70
2022-08-05T23:30:40.034Z,1.77
2022-08-05T23:33:21.928Z,1.83
2022-08-05T23:35:55.078Z,1.57
2022-08-05T23:38:25.867Z,1.60
2022-08-05T23:40:54.221Z,1.53
2022-08-05T23:43:37.292Z,1.50
2022-08-05T23:46:20.130Z,1.50
2022-08-05T23:49:00.346Z,1.90
2022-08-05T23:51:53.486Z,1.60
2022-08-05T23:54:25.149Z,1.70
2022-08-05T23:56:54.959Z,2.00
2022-08-05T23:59:27.584Z,1.60
